sensor_id;sensor_type;location;lat;lon;timestamp;pressure;altitude;pressure_sealevel;temperature;humidity
43147;BME280;28752;48.266;7.402;2023-03-16T00:02:03;99779.25;;;3.63;79.42
43147;BME280;28752;48.266;7.402;2023-03-16T00:04:29;99781.75;;;3.64;79.33
43147;BME280;28752;48.266;7.402;2023-03-16T00:06:55;99769.81;;;3.60;79.36
43147;BME280;28752;48.266;7.402;2023-03-16T00:09:20;99776.53;;;3.64;78.60
43147;BME280;28752;48.266;7.402;2023-03-16T00:11:46;99775.69;;;3.64;78.35
43147;BME280;28752;48.266;7.402;2023-03-16T00:14:11;99781.66;;;3.66;78.79
43147;BME280;28752;48.266;7.402;2023-03-16T00:16:37;99768.13;;;3.59;78.94
43147;BME280;28752;48.266;7.402;2023-03-16T00:19:03;99774.28;;;3.58;79.03
43147;BME280;28752;48.266;7.402;2023-03-16T00:21:30;99780.47;;;3.57;78.75
43147;BME280;28752;48.266;7.402;2023-03-16T00:23:56;99774.28;;;3.58;78.99
43147;BME280;28752;48.266;7.402;2023-03-16T00:26:22;99776.91;;;3.58;78.78
43147;BME280;28752;48.266;7.402;2023-03-16T00:28:47;99765.88;;;3.53;78.45
43147;BME280;28752;48.266;7.402;2023-03-16T00:31:12;99759.03;;;3.50;78.88
43147;BME280;28752;48.266;7.402;2023-03-16T00:33:38;99755.28;;;3.40;78.46
43147;BME280;28752;48.266;7.402;2023-03-16T00:36:07;99755.69;;;3.48;79.00
43147;BME280;28752;48.266;7.402;2023-03-16T00:38:38;99744.56;;;3.45;78.78
43147;BME280;28752;48.266;7.402;2023-03-16T00:41:06;99757.47;;;3.48;79.05
43147;BME280;28752;48.266;7.402;2023-03-16T00:43:34;99752.41;;;3.45;79.39
43147;BME280;28752;48.266;7.402;2023-03-16T00:46:07;99749.91;;;3.43;79.53
43147;BME280;28752;48.266;7.402;2023-03-16T00:48:37;99755.38;;;3.38;79.59
43147;BME280;28752;48.266;7.402;2023-03-16T00:51:05;99735.66;;;3.33;78.94
43147;BME280;28752;48.266;7.402;2023-03-16T00:53:34;99750.03;;;3.40;79.32
43147;BME280;28752;48.266;7.402;2023-03-16T00:56:00;99745.19;;;3.34;78.93
43147;BME280;28752;48.266;7.402;2023-03-16T00:58:32;99741.19;;;3.28;78.82
43147;BME280;28752;48.266;7.402;2023-03-16T01:01:12;99747.16;;;3.30;79.94
43147;BME280;28752;48.266;7.402;2023-03-16T01:03:39;99742.75;;;3.16;80.04
43147;BME280;28752;48.266;7.402;2023-03-16T01:06:09;99739.03;;;3.20;79.36
43147;BME280;28752;48.266;7.402;2023-03-16T01:08:36;99743.84;;;3.12;79.87
43147;BME280;28752;48.266;7.402;2023-03-16T01:11:06;99744.13;;;3.08;79.85
43147;BME280;28752;48.266;7.402;2023-03-16T01:13:32;99731.88;;;3.08;79.67
43147;BME280;28752;48.266;7.402;2023-03-16T01:15:58;99732.16;;;3.03;79.87
43147;BME280;28752;48.266;7.402;2023-03-16T01:18:24;99729.91;;;2.97;80.33
43147;BME280;28752;48.266;7.402;2023-03-16T01:20:50;99736.16;;;2.95;80.11
43147;BME280;28752;48.266;7.402;2023-03-16T01:23:16;99737.47;;;3.02;80.30
43147;BME280;28752;48.266;7.402;2023-03-16T01:25:42;99731.03;;;2.93;80.00
43147;BME280;28752;48.266;7.402;2023-03-16T01:28:08;99734.28;;;2.97;80.19
43147;BME280;28752;48.266;7.402;2023-03-16T01:30:33;99731.94;;;2.92;79.85
43147;BME280;28752;48.266;7.402;2023-03-16T01:32:59;99730.78;;;2.82;80.07
43147;BME280;28752;48.266;7.402;2023-03-16T01:35:25;99733.13;;;2.87;80.73
43147;BME280;28752;48.266;7.402;2023-03-16T01:37:50;99728.00;;;2.85;80.56
43147;BME280;28752;48.266;7.402;2023-03-16T01:40:16;99728.19;;;2.82;80.46
43147;BME280;28752;48.266;7.402;2023-03-16T01:42:59;99730.50;;;2.72;80.14
43147;BME280;28752;48.266;7.402;2023-03-16T01:48:28;99731.84;;;2.63;80.97
43147;BME280;28752;48.266;7.402;2023-03-16T01:51:04;99734.38;;;2.65;80.46
43147;BME280;28752;48.266;7.402;2023-03-16T01:53:32;99729.34;;;2.62;80.68
43147;BME280;28752;48.266;7.402;2023-03-16T01:55:59;99732.03;;;2.60;80.45
43147;BME280;28752;48.266;7.402;2023-03-16T01:58:27;99728.75;;;2.57;80.85
43147;BME280;28752;48.266;7.402;2023-03-16T02:00:53;99726.41;;;2.52;80.92
43147;BME280;28752;48.266;7.402;2023-03-16T02:03:19;99734.53;;;2.31;81.38
43147;BME280;28752;48.266;7.402;2023-03-16T02:08:17;99730.72;;;2.37;81.55
43147;BME280;28752;48.266;7.402;2023-03-16T02:10:43;99731.06;;;2.31;81.79
43147;BME280;28752;48.266;7.402;2023-03-16T02:13:10;99722.47;;;2.29;81.85
43147;BME280;28752;48.266;7.402;2023-03-16T02:15:36;99723.25;;;2.31;81.71
43147;BME280;28752;48.266;7.402;2023-03-16T02:18:03;99717.66;;;2.21;82.09
43147;BME280;28752;48.266;7.402;2023-03-16T02:20:42;99729.16;;;2.19;82.48
43147;BME280;28752;48.266;7.402;2023-03-16T02:23:14;99726.03;;;2.12;82.75
43147;BME280;28752;48.266;7.402;2023-03-16T02:26:00;99729.13;;;2.03;83.09
43147;BME280;28752;48.266;7.402;2023-03-16T02:31:15;99718.44;;;2.07;82.40
43147;BME280;28752;48.266;7.402;2023-03-16T02:33:42;99722.66;;;2.10;82.24
43147;BME280;28752;48.266;7.402;2023-03-16T02:36:08;99722.91;;;2.05;82.03
43147;BME280;28752;48.266;7.402;2023-03-16T02:38:33;99701.66;;;1.95;82.66
43147;BME280;28752;48.266;7.402;2023-03-16T02:41:14;99714.03;;;2.08;82.24
43147;BME280;28752;48.266;7.402;2023-03-16T02:43:47;99700.56;;;2.00;82.61
43147;BME280;28752;48.266;7.402;2023-03-16T02:46:17;99708.50;;;1.98;82.68
43147;BME280;28752;48.266;7.402;2023-03-16T02:48:52;99695.53;;;1.97;82.27
43147;BME280;28752;48.266;7.402;2023-03-16T02:51:19;99713.22;;;1.91;82.46
43147;BME280;28752;48.266;7.402;2023-03-16T02:53:45;99699.31;;;1.75;82.96
43147;BME280;28752;48.266;7.402;2023-03-16T02:56:10;99697.78;;;1.71;83.10
43147;BME280;28752;48.266;7.402;2023-03-16T02:58:36;99698.44;;;1.74;82.99
43147;BME280;28752;48.266;7.402;2023-03-16T03:01:01;99693.69;;;1.83;82.65
43147;BME280;28752;48.266;7.402;2023-03-16T03:03:27;99697.72;;;1.88;82.55
43147;BME280;28752;48.266;7.402;2023-03-16T03:05:53;99662.69;;;1.76;82.25
43147;BME280;28752;48.266;7.402;2023-03-16T03:08:18;99677.94;;;1.84;82.55
43147;BME280;28752;48.266;7.402;2023-03-16T03:10:48;99682.44;;;1.81;82.82
43147;BME280;28752;48.266;7.402;2023-03-16T03:13:13;99681.78;;;1.77;82.83
43147;BME280;28752;48.266;7.402;2023-03-16T03:15:39;99688.72;;;1.78;82.91
43147;BME280;28752;48.266;7.402;2023-03-16T03:18:05;99686.94;;;1.78;82.95
43147;BME280;28752;48.266;7.402;2023-03-16T03:20:31;99689.47;;;1.80;83.30
43147;BME280;28752;48.266;7.402;2023-03-16T03:22:56;99655.84;;;1.74;82.94
43147;BME280;28752;48.266;7.402;2023-03-16T03:25:22;99668.75;;;1.61;83.81
43147;BME280;28752;48.266;7.402;2023-03-16T03:27:48;99659.47;;;1.55;83.45
43147;BME280;28752;48.266;7.402;2023-03-16T03:30:17;99664.09;;;1.66;83.37
43147;BME280;28752;48.266;7.402;2023-03-16T03:32:43;99660.06;;;1.60;83.76
43147;BME280;28752;48.266;7.402;2023-03-16T03:35:11;99664.94;;;1.67;83.26
43147;BME280;28752;48.266;7.402;2023-03-16T03:37:38;99657.03;;;1.68;83.18
43147;BME280;28752;48.266;7.402;2023-03-16T03:40:06;99664.03;;;1.68;83.04
43147;BME280;28752;48.266;7.402;2023-03-16T03:42:32;99653.81;;;1.63;82.82
43147;BME280;28752;48.266;7.402;2023-03-16T03:44:57;99635.06;;;1.56;82.88
43147;BME280;28752;48.266;7.402;2023-03-16T03:47:22;99657.28;;;1.64;83.14
43147;BME280;28752;48.266;7.402;2023-03-16T03:49:48;99655.59;;;1.63;83.24
43147;BME280;28752;48.266;7.402;2023-03-16T03:52:13;99657.97;;;1.67;83.11
43147;BME280;28752;48.266;7.402;2023-03-16T03:54:38;99657.09;;;1.67;82.84
43147;BME280;28752;48.266;7.402;2023-03-16T03:57:04;99654.31;;;1.70;82.51
43147;BME280;28752;48.266;7.402;2023-03-16T03:59:30;99661.06;;;1.74;82.88
43147;BME280;28752;48.266;7.402;2023-03-16T04:01:55;99648.69;;;1.62;82.50
43147;BME280;28752;48.266;7.402;2023-03-16T04:04:21;99646.00;;;1.63;82.60
43147;BME280;28752;48.266;7.402;2023-03-16T04:06:46;99648.94;;;1.57;82.81
43147;BME280;28752;48.266;7.402;2023-03-16T04:09:12;99656.28;;;1.66;82.67
43147;BME280;28752;48.266;7.402;2023-03-16T04:11:37;99664.09;;;1.66;82.79
43147;BME280;28752;48.266;7.402;2023-03-16T04:14:03;99661.66;;;1.63;83.11
43147;BME280;28752;48.266;7.402;2023-03-16T04:16:29;99655.78;;;1.59;83.26
43147;BME280;28752;48.266;7.402;2023-03-16T04:18:55;99661.09;;;1.58;83.39
43147;BME280;28752;48.266;7.402;2023-03-16T04:21:21;99659.22;;;1.60;83.86
43147;BME280;28752;48.266;7.402;2023-03-16T04:23:48;99648.88;;;1.58;83.79
43147;BME280;28752;48.266;7.402;2023-03-16T04:26:14;99658.47;;;1.58;83.87
43147;BME280;28752;48.266;7.402;2023-03-16T04:28:39;99657.59;;;1.57;83.89
43147;BME280;28752;48.266;7.402;2023-03-16T04:31:07;99648.03;;;1.58;83.77
43147;BME280;28752;48.266;7.402;2023-03-16T04:33:34;99655.59;;;1.63;83.50
43147;BME280;28752;48.266;7.402;2023-03-16T04:36:00;99653.09;;;1.61;83.39
43147;BME280;28752;48.266;7.402;2023-03-16T04:38:27;99654.81;;;1.60;83.59
43147;BME280;28752;48.266;7.402;2023-03-16T04:40:52;99648.53;;;1.65;84.04
43147;BME280;28752;48.266;7.402;2023-03-16T04:43:18;99639.78;;;1.66;83.86
43147;BME280;28752;48.266;7.402;2023-03-16T04:45:43;99638.34;;;1.60;83.84
43147;BME280;28752;48.266;7.402;2023-03-16T04:48:09;99641.78;;;1.60;83.88
43147;BME280;28752;48.266;7.402;2023-03-16T04:50:34;99634.22;;;1.72;83.51
43147;BME280;28752;48.266;7.402;2023-03-16T04:53:00;99633.78;;;1.64;83.51
43147;BME280;28752;48.266;7.402;2023-03-16T04:55:25;99630.41;;;1.62;83.46
43147;BME280;28752;48.266;7.402;2023-03-16T04:57:51;99630.16;;;1.50;83.64
43147;BME280;28752;48.266;7.402;2023-03-16T05:00:16;99635.38;;;1.34;83.73
43147;BME280;28752;48.266;7.402;2023-03-16T05:02:46;99619.91;;;1.14;84.56
43147;BME280;28752;48.266;7.402;2023-03-16T05:05:12;99616.97;;;1.20;84.72
43147;BME280;28752;48.266;7.402;2023-03-16T05:07:39;99624.00;;;1.35;84.34
43147;BME280;28752;48.266;7.402;2023-03-16T05:10:06;99624.25;;;1.47;84.08
43147;BME280;28752;48.266;7.402;2023-03-16T05:12:32;99620.66;;;1.49;83.84
43147;BME280;28752;48.266;7.402;2023-03-16T05:14:57;99621.41;;;1.51;83.88
43147;BME280;28752;48.266;7.402;2023-03-16T05:17:22;99624.00;;;1.51;83.75
43147;BME280;28752;48.266;7.402;2023-03-16T05:19:48;99628.50;;;1.49;83.75
43147;BME280;28752;48.266;7.402;2023-03-16T05:22:14;99629.06;;;1.54;83.52
43147;BME280;28752;48.266;7.402;2023-03-16T05:24:39;99611.97;;;1.33;83.48
43147;BME280;28752;48.266;7.402;2023-03-16T05:27:05;99634.88;;;1.44;83.76
43147;BME280;28752;48.266;7.402;2023-03-16T05:29:30;99644.31;;;1.46;83.71
43147;BME280;28752;48.266;7.402;2023-03-16T05:31:57;99640.84;;;1.46;83.93
43147;BME280;28752;48.266;7.402;2023-03-16T05:34:23;99625.25;;;1.44;83.74
43147;BME280;28752;48.266;7.402;2023-03-16T05:36:48;99628.91;;;1.41;83.66
43147;BME280;28752;48.266;7.402;2023-03-16T05:39:14;99632.25;;;1.44;83.76
43147;BME280;28752;48.266;7.402;2023-03-16T05:41:39;99644.88;;;1.51;83.84
43147;BME280;28752;48.266;7.402;2023-03-16T05:44:05;99627.13;;;1.42;83.68
43147;BME280;28752;48.266;7.402;2023-03-16T05:46:31;99636.22;;;1.51;83.40
43147;BME280;28752;48.266;7.402;2023-03-16T05:48:57;99625.34;;;1.42;83.61
43147;BME280;28752;48.266;7.402;2023-03-16T05:51:23;99640.34;;;1.55;83.18
43147;BME280;28752;48.266;7.402;2023-03-16T05:53:51;99629.56;;;1.45;83.14
43147;BME280;28752;48.266;7.402;2023-03-16T05:56:16;99632.94;;;1.63;82.77
43147;BME280;28752;48.266;7.402;2023-03-16T05:58:41;99618.56;;;1.72;82.33
43147;BME280;28752;48.266;7.402;2023-03-16T06:01:07;99620.75;;;1.80;81.79
43147;BME280;28752;48.266;7.402;2023-03-16T06:03:33;99615.00;;;1.89;81.30
43147;BME280;28752;48.266;7.402;2023-03-16T06:05:58;99623.16;;;1.99;80.70
43147;BME280;28752;48.266;7.402;2023-03-16T06:08:24;99605.03;;;1.95;80.51
43147;BME280;28752;48.266;7.402;2023-03-16T06:10:49;99628.84;;;2.21;80.11
43147;BME280;28752;48.266;7.402;2023-03-16T06:13:14;99631.78;;;2.31;80.04
43147;BME280;28752;48.266;7.402;2023-03-16T06:15:40;99622.97;;;2.48;79.43
43147;BME280;28752;48.266;7.402;2023-03-16T06:18:06;99622.81;;;2.94;77.83
43147;BME280;28752;48.266;7.402;2023-03-16T06:20:31;99636.84;;;3.36;75.99
43147;BME280;28752;48.266;7.402;2023-03-16T06:22:57;99610.91;;;3.61;74.52
43147;BME280;28752;48.266;7.402;2023-03-16T06:25:22;99638.78;;;4.43;72.69
43147;BME280;28752;48.266;7.402;2023-03-16T06:27:48;99637.69;;;5.12;70.48
43147;BME280;28752;48.266;7.402;2023-03-16T06:30:14;99636.28;;;5.82;66.75
43147;BME280;28752;48.266;7.402;2023-03-16T06:32:40;99636.03;;;6.22;65.41
43147;BME280;28752;48.266;7.402;2023-03-16T06:35:09;99630.84;;;6.33;63.66
43147;BME280;28752;48.266;7.402;2023-03-16T06:37:35;99625.69;;;6.79;62.65
43147;BME280;28752;48.266;7.402;2023-03-16T06:40:00;99616.03;;;6.90;62.99
43147;BME280;28752;48.266;7.402;2023-03-16T06:42:26;99615.44;;;7.43;60.84
43147;BME280;28752;48.266;7.402;2023-03-16T06:44:51;99622.72;;;7.06;60.80
43147;BME280;28752;48.266;7.402;2023-03-16T06:47:17;99619.63;;;7.01;61.06
43147;BME280;28752;48.266;7.402;2023-03-16T06:49:42;99622.38;;;7.56;60.75
43147;BME280;28752;48.266;7.402;2023-03-16T06:52:08;99603.31;;;7.75;60.16
43147;BME280;28752;48.266;7.402;2023-03-16T06:54:35;99602.88;;;8.02;59.44
43147;BME280;28752;48.266;7.402;2023-03-16T06:57:02;99616.03;;;8.46;58.24
43147;BME280;28752;48.266;7.402;2023-03-16T06:59:27;99619.41;;;9.00;56.94
43147;BME280;28752;48.266;7.402;2023-03-16T07:01:53;99589.13;;;8.19;57.00
43147;BME280;28752;48.266;7.402;2023-03-16T07:04:18;99596.34;;;7.74;58.67
43147;BME280;28752;48.266;7.402;2023-03-16T07:06:43;99596.50;;;6.70;61.09
43147;BME280;28752;48.266;7.402;2023-03-16T07:09:09;99598.72;;;6.41;62.69
43147;BME280;28752;48.266;7.402;2023-03-16T07:11:35;99598.13;;;6.13;64.63
43147;BME280;28752;48.266;7.402;2023-03-16T07:14:00;99590.06;;;6.39;63.97
43147;BME280;28752;48.266;7.402;2023-03-16T07:16:26;99607.97;;;7.71;60.80
43147;BME280;28752;48.266;7.402;2023-03-16T07:18:52;99613.50;;;8.86;57.93
43147;BME280;28752;48.266;7.402;2023-03-16T07:21:17;99614.66;;;9.65;55.02
43147;BME280;28752;48.266;7.402;2023-03-16T07:23:43;99614.59;;;10.25;53.60
43147;BME280;28752;48.266;7.402;2023-03-16T07:26:09;99616.69;;;10.61;52.70
43147;BME280;28752;48.266;7.402;2023-03-16T07:28:37;99607.25;;;10.39;52.05
43147;BME280;28752;48.266;7.402;2023-03-16T07:31:03;99610.97;;;10.75;51.78
43147;BME280;28752;48.266;7.402;2023-03-16T07:33:29;99591.09;;;10.99;51.82
43147;BME280;28752;48.266;7.402;2023-03-16T07:35:54;99607.50;;;10.26;52.74
43147;BME280;28752;48.266;7.402;2023-03-16T07:38:19;99591.28;;;9.60;54.40
43147;BME280;28752;48.266;7.402;2023-03-16T07:40:45;99619.25;;;9.63;54.78
43147;BME280;28752;48.266;7.402;2023-03-16T07:43:11;99594.97;;;9.07;55.93
43147;BME280;28752;48.266;7.402;2023-03-16T07:45:37;99610.00;;;9.07;57.11
43147;BME280;28752;48.266;7.402;2023-03-16T07:48:02;99620.97;;;8.81;57.21
43147;BME280;28752;48.266;7.402;2023-03-16T07:50:28;99609.91;;;8.66;58.30
43147;BME280;28752;48.266;7.402;2023-03-16T07:52:53;99606.88;;;8.50;58.99
43147;BME280;28752;48.266;7.402;2023-03-16T07:55:18;99608.88;;;8.58;59.48
43147;BME280;28752;48.266;7.402;2023-03-16T07:57:44;99619.03;;;8.41;59.65
43147;BME280;28752;48.266;7.402;2023-03-16T08:00:13;99621.91;;;8.38;61.15
43147;BME280;28752;48.266;7.402;2023-03-16T08:02:39;99619.94;;;8.51;61.25
43147;BME280;28752;48.266;7.402;2023-03-16T08:05:04;99606.81;;;8.61;60.88
43147;BME280;28752;48.266;7.402;2023-03-16T08:07:30;99617.50;;;8.81;59.17
43147;BME280;28752;48.266;7.402;2023-03-16T08:09:56;99615.94;;;8.99;58.83
43147;BME280;28752;48.266;7.402;2023-03-16T08:12:21;99610.66;;;9.30;58.47
43147;BME280;28752;48.266;7.402;2023-03-16T08:14:47;99620.78;;;9.66;57.82
43147;BME280;28752;48.266;7.402;2023-03-16T08:17:12;99600.88;;;9.62;57.47
43147;BME280;28752;48.266;7.402;2023-03-16T08:19:38;99618.03;;;9.77;56.07
43147;BME280;28752;48.266;7.402;2023-03-16T08:22:04;99607.16;;;9.70;56.42
43147;BME280;28752;48.266;7.402;2023-03-16T08:24:31;99609.78;;;9.60;56.37
43147;BME280;28752;48.266;7.402;2023-03-16T08:26:58;99599.34;;;9.59;56.83
43147;BME280;28752;48.266;7.402;2023-03-16T08:29:25;99587.97;;;8.97;57.71
43147;BME280;28752;48.266;7.402;2023-03-16T08:31:54;99591.22;;;9.00;57.30
43147;BME280;28752;48.266;7.402;2023-03-16T08:34:21;99588.25;;;8.73;59.16
43147;BME280;28752;48.266;7.402;2023-03-16T08:36:46;99572.13;;;8.66;58.99
43147;BME280;28752;48.266;7.402;2023-03-16T08:39:12;99586.22;;;8.76;59.53
43147;BME280;28752;48.266;7.402;2023-03-16T08:41:37;99597.88;;;9.04;59.82
43147;BME280;28752;48.266;7.402;2023-03-16T08:44:04;99594.22;;;9.27;58.83
43147;BME280;28752;48.266;7.402;2023-03-16T08:46:32;99595.69;;;9.50;58.03
43147;BME280;28752;48.266;7.402;2023-03-16T08:48:58;99589.72;;;9.48;58.82
43147;BME280;28752;48.266;7.402;2023-03-16T08:51:23;99593.31;;;9.47;59.07
43147;BME280;28752;48.266;7.402;2023-03-16T08:53:49;99586.56;;;9.64;58.86
43147;BME280;28752;48.266;7.402;2023-03-16T08:56:14;99581.53;;;9.61;57.16
43147;BME280;28752;48.266;7.402;2023-03-16T08:58:41;99575.09;;;9.44;57.98
43147;BME280;28752;48.266;7.402;2023-03-16T09:01:11;99580.13;;;9.57;58.17
43147;BME280;28752;48.266;7.402;2023-03-16T09:03:37;99580.31;;;9.85;58.04
43147;BME280;28752;48.266;7.402;2023-03-16T09:06:09;99570.72;;;10.03;56.81
43147;BME280;28752;48.266;7.402;2023-03-16T09:08:36;99572.66;;;10.30;57.21
43147;BME280;28752;48.266;7.402;2023-03-16T09:11:06;99569.25;;;9.50;58.19
43147;BME280;28752;48.266;7.402;2023-03-16T09:13:32;99562.78;;;9.23;59.03
43147;BME280;28752;48.266;7.402;2023-03-16T09:15:57;99536.16;;;9.46;58.88
43147;BME280;28752;48.266;7.402;2023-03-16T09:18:24;99551.47;;;9.62;58.98
43147;BME280;28752;48.266;7.402;2023-03-16T09:20:59;99556.66;;;9.73;59.24
43147;BME280;28752;48.266;7.402;2023-03-16T09:23:25;99550.09;;;9.68;58.89
43147;BME280;28752;48.266;7.402;2023-03-16T09:25:51;99560.53;;;9.69;58.99
43147;BME280;28752;48.266;7.402;2023-03-16T09:28:17;99557.47;;;9.14;59.92
43147;BME280;28752;48.266;7.402;2023-03-16T09:30:43;99546.63;;;9.17;60.21
43147;BME280;28752;48.266;7.402;2023-03-16T09:33:08;99551.84;;;8.97;60.74
43147;BME280;28752;48.266;7.402;2023-03-16T09:35:33;99525.50;;;8.76;61.73
43147;BME280;28752;48.266;7.402;2023-03-16T09:37:59;99531.22;;;8.81;61.65
43147;BME280;28752;48.266;7.402;2023-03-16T09:40:26;99544.25;;;9.14;60.91
43147;BME280;28752;48.266;7.402;2023-03-16T09:46:26;99535.69;;;8.91;62.27
43147;BME280;28752;48.266;7.402;2023-03-16T09:48:54;99525.63;;;9.15;62.02
43147;BME280;28752;48.266;7.402;2023-03-16T09:53:56;99528.22;;;9.46;61.13
43147;BME280;28752;48.266;7.402;2023-03-16T09:56:29;99530.63;;;9.69;60.69
43147;BME280;28752;48.266;7.402;2023-03-16T09:58:58;99515.59;;;9.79;60.16
43147;BME280;28752;48.266;7.402;2023-03-16T10:04:26;99527.25;;;10.16;59.59
43147;BME280;28752;48.266;7.402;2023-03-16T10:12:06;99526.88;;;10.10;58.54
43147;BME280;28752;48.266;7.402;2023-03-16T10:15:05;99526.31;;;10.07;59.72
43147;BME280;28752;48.266;7.402;2023-03-16T10:18:06;99531.63;;;9.87;58.61
43147;BME280;28752;48.266;7.402;2023-03-16T10:20:35;99525.19;;;9.80;59.97
43147;BME280;28752;48.266;7.402;2023-03-16T10:23:13;99523.97;;;9.84;59.17
43147;BME280;28752;48.266;7.402;2023-03-16T10:25:55;99529.66;;;9.80;58.04
43147;BME280;28752;48.266;7.402;2023-03-16T10:30:49;99518.94;;;9.81;59.52
43147;BME280;28752;48.266;7.402;2023-03-16T10:33:22;99520.88;;;10.18;59.91
43147;BME280;28752;48.266;7.402;2023-03-16T10:36:24;99523.66;;;10.26;58.94
43147;BME280;28752;48.266;7.402;2023-03-16T10:38:58;99518.38;;;10.17;57.11
43147;BME280;28752;48.266;7.402;2023-03-16T10:41:30;99513.63;;;10.30;56.85
43147;BME280;28752;48.266;7.402;2023-03-16T10:44:01;99513.47;;;10.31;57.13
43147;BME280;28752;48.266;7.402;2023-03-16T10:46:38;99496.09;;;10.39;57.26
43147;BME280;28752;48.266;7.402;2023-03-16T10:49:04;99505.22;;;10.54;55.65
43147;BME280;28752;48.266;7.402;2023-03-16T10:51:33;99498.69;;;10.58;55.20
43147;BME280;28752;48.266;7.402;2023-03-16T10:54:12;99474.94;;;10.66;54.96
43147;BME280;28752;48.266;7.402;2023-03-16T10:56:39;99478.94;;;10.80;55.56
43147;BME280;28752;48.266;7.402;2023-03-16T10:59:34;99483.16;;;11.01;54.80
43147;BME280;28752;48.266;7.402;2023-03-16T11:02:10;99480.97;;;11.14;54.49
43147;BME280;28752;48.266;7.402;2023-03-16T11:04:39;99485.47;;;11.14;53.62
43147;BME280;28752;48.266;7.402;2023-03-16T11:07:06;99479.91;;;11.35;53.62
43147;BME280;28752;48.266;7.402;2023-03-16T11:09:35;99482.16;;;11.30;51.90
43147;BME280;28752;48.266;7.402;2023-03-16T11:12:24;99486.50;;;11.49;53.36
43147;BME280;28752;48.266;7.402;2023-03-16T11:14:50;99479.63;;;11.56;52.54
43147;BME280;28752;48.266;7.402;2023-03-16T11:17:18;99466.28;;;11.48;51.15
43147;BME280;28752;48.266;7.402;2023-03-16T11:19:52;99473.31;;;11.39;50.62
43147;BME280;28752;48.266;7.402;2023-03-16T11:22:23;99472.94;;;11.52;52.86
43147;BME280;28752;48.266;7.402;2023-03-16T11:25:11;99481.03;;;11.50;52.04
43147;BME280;28752;48.266;7.402;2023-03-16T11:30:55;99463.09;;;11.62;51.47
43147;BME280;28752;48.266;7.402;2023-03-16T11:33:25;99460.66;;;11.69;50.92
43147;BME280;28752;48.266;7.402;2023-03-16T11:36:12;99456.13;;;11.61;50.09
43147;BME280;28752;48.266;7.402;2023-03-16T11:39:01;99457.84;;;11.70;50.43
43147;BME280;28752;48.266;7.402;2023-03-16T11:44:37;99451.66;;;11.80;48.81
43147;BME280;28752;48.266;7.402;2023-03-16T11:47:22;99450.66;;;11.81;48.89
43147;BME280;28752;48.266;7.402;2023-03-16T11:50:00;99442.06;;;11.87;48.80
43147;BME280;28752;48.266;7.402;2023-03-16T11:52:58;99445.88;;;12.02;48.57
43147;BME280;28752;48.266;7.402;2023-03-16T11:55:38;99436.78;;;12.05;48.04
43147;BME280;28752;48.266;7.402;2023-03-16T11:58:20;99427.94;;;12.22;49.38
43147;BME280;28752;48.266;7.402;2023-03-16T12:01:23;99424.97;;;12.25;48.51
43147;BME280;28752;48.266;7.402;2023-03-16T12:03:55;99424.66;;;12.29;48.86
43147;BME280;28752;48.266;7.402;2023-03-16T12:06:48;99423.50;;;12.31;47.98
43147;BME280;28752;48.266;7.402;2023-03-16T12:17:50;99416.41;;;12.40;43.93
43147;BME280;28752;48.266;7.402;2023-03-16T12:20:21;99423.91;;;12.44;43.89
43147;BME280;28752;48.266;7.402;2023-03-16T12:22:51;99412.63;;;12.42;43.91
43147;BME280;28752;48.266;7.402;2023-03-16T12:25:23;99410.22;;;12.57;44.77
43147;BME280;28752;48.266;7.402;2023-03-16T12:27:58;99414.66;;;12.57;43.73
43147;BME280;28752;48.266;7.402;2023-03-16T12:33:03;99407.41;;;12.67;44.92
43147;BME280;28752;48.266;7.402;2023-03-16T12:46:13;99394.84;;;12.77;44.96
43147;BME280;28752;48.266;7.402;2023-03-16T12:48:51;99385.34;;;12.75;46.25
43147;BME280;28752;48.266;7.402;2023-03-16T12:51:18;99383.56;;;12.84;44.75
43147;BME280;28752;48.266;7.402;2023-03-16T12:53:54;99378.09;;;12.93;44.44
43147;BME280;28752;48.266;7.402;2023-03-16T12:56:29;99369.50;;;13.08;44.71
43147;BME280;28752;48.266;7.402;2023-03-16T12:59:01;99370.53;;;12.56;43.83
43147;BME280;28752;48.266;7.402;2023-03-16T13:01:41;99360.16;;;12.87;45.22
43147;BME280;28752;48.266;7.402;2023-03-16T13:04:14;99357.16;;;12.90;44.53
43147;BME280;28752;48.266;7.402;2023-03-16T13:06:44;99357.72;;;13.10;44.07
43147;BME280;28752;48.266;7.402;2023-03-16T13:09:10;99351.91;;;13.23;45.24
43147;BME280;28752;48.266;7.402;2023-03-16T13:11:45;99343.44;;;13.28;44.95
43147;BME280;28752;48.266;7.402;2023-03-16T13:14:34;99345.59;;;13.24;44.67
43147;BME280;28752;48.266;7.402;2023-03-16T13:17:49;99338.97;;;13.45;45.03
43147;BME280;28752;48.266;7.402;2023-03-16T13:28:41;99311.06;;;13.49;42.90
43147;BME280;28752;48.266;7.402;2023-03-16T13:33:56;99326.19;;;13.65;43.08
43147;BME280;28752;48.266;7.402;2023-03-16T13:36:26;99315.19;;;13.76;42.89
43147;BME280;28752;48.266;7.402;2023-03-16T13:39:03;99318.19;;;13.73;41.77
43147;BME280;28752;48.266;7.402;2023-03-16T13:41:29;99318.34;;;13.72;40.42
43147;BME280;28752;48.266;7.402;2023-03-16T13:43:55;99316.16;;;13.75;40.15
43147;BME280;28752;48.266;7.402;2023-03-16T13:46:27;99315.50;;;13.90;40.41
43147;BME280;28752;48.266;7.402;2023-03-16T13:48:56;99311.66;;;13.84;41.31
43147;BME280;28752;48.266;7.402;2023-03-16T13:51:22;99304.00;;;13.97;42.33
43147;BME280;28752;48.266;7.402;2023-03-16T13:53:48;99302.50;;;13.95;41.17
43147;BME280;28752;48.266;7.402;2023-03-16T13:56:17;99279.78;;;13.51;40.36
43147;BME280;28752;48.266;7.402;2023-03-16T13:58:46;99303.25;;;13.39;40.55
43147;BME280;28752;48.266;7.402;2023-03-16T14:01:25;99307.84;;;13.78;40.74
43147;BME280;28752;48.266;7.402;2023-03-16T14:03:52;99315.00;;;13.78;40.24
43147;BME280;28752;48.266;7.402;2023-03-16T14:06:24;99313.03;;;13.63;39.85
43147;BME280;28752;48.266;7.402;2023-03-16T14:08:53;99301.66;;;13.86;40.38
43147;BME280;28752;48.266;7.402;2023-03-16T14:11:20;99297.00;;;14.04;40.55
43147;BME280;28752;48.266;7.402;2023-03-16T14:13:53;99297.88;;;14.28;40.89
43147;BME280;28752;48.266;7.402;2023-03-16T14:16:21;99293.69;;;14.34;39.70
43147;BME280;28752;48.266;7.402;2023-03-16T14:18:53;99293.34;;;14.37;40.06
43147;BME280;28752;48.266;7.402;2023-03-16T14:21:22;99290.94;;;14.19;39.17